Time;durP1;ratioP1;P1;durP2;ratioP2;P2;SDS_P1;SDS_P2;PMS_P1;PMS_P2;Temp;Humidity;BMP_temperature;BMP_pressure;BME280_temperature;BME280_humidity;BME280_pressure;Samples;Min_cycle;Max_cycle;Signal;HPM_P1;HPM_P2
2022/07/24 00:01:48;;;;;;;7.22;5.43;;;;;;;14.16;80.87;99074.56;4122689;28;20054;-72
2022/07/24 00:03:49;;;;;;;6.82;6.05;;;;;;;14.17;81.05;99079.72;4132881;28;20060;-72
2022/07/24 00:05:49;;;;;;;7.03;5.93;;;;;;;14.14;83.44;99068.56;4135221;28;20127;-72
2022/07/24 00:07:49;;;;;;;7.07;5.20;;;;;;;14.15;81.27;99073.75;4132862;28;20118;-72
2022/07/24 00:09:50;;;;;;;6.72;5.43;;;;;;;14.17;81.66;99076.94;4133144;28;20037;-72
2022/07/24 00:11:50;;;;;;;8.88;5.78;;;;;;;14.13;82.50;99078.88;4133202;28;20135;-72
2022/07/24 00:13:51;;;;;;;7.22;5.45;;;;;;;14.09;82.50;99068.94;4133919;28;20046;-72
2022/07/24 00:15:51;;;;;;;5.95;5.30;;;;;;;14.07;83.42;99069.31;4132624;28;20451;-72
2022/07/24 00:17:52;;;;;;;9.98;5.85;;;;;;;14.04;81.95;99065.31;4133749;28;20483;-72
2022/07/24 00:19:52;;;;;;;6.78;5.30;;;;;;;14.05;81.61;99077.25;4122939;28;20058;-71
2022/07/24 00:21:52;;;;;;;6.65;5.20;;;;;;;13.97;82.22;99073.59;4133122;28;20428;-71
2022/07/24 00:23:53;;;;;;;8.02;5.53;;;;;;;13.95;81.93;99075.97;4132445;28;20056;-72
2022/07/24 00:25:53;;;;;;;7.80;5.78;;;;;;;13.86;83.36;99077.50;4133175;28;20096;-72
2022/07/24 00:27:54;;;;;;;6.38;5.13;;;;;;;13.78;84.22;99080.22;4133343;28;20314;-72
2022/07/24 00:29:54;;;;;;;8.20;5.25;;;;;;;13.72;82.83;99080.97;4131082;28;20542;-72
2022/07/24 00:31:54;;;;;;;7.43;5.38;;;;;;;13.70;82.79;99080.53;4133163;28;20128;-72
2022/07/24 00:33:55;;;;;;;7.97;5.57;;;;;;;13.67;83.36;99082.13;4132466;28;20129;-72
2022/07/24 00:35:55;;;;;;;7.43;5.55;;;;;;;13.63;84.74;99077.69;4133182;28;20122;-72
2022/07/24 00:37:56;;;;;;;7.25;5.25;;;;;;;13.64;83.16;99082.06;4134782;28;20049;-72
2022/07/24 00:39:56;;;;;;;6.80;5.32;;;;;;;13.65;82.64;99075.31;4132858;28;20487;-72
2022/07/24 00:41:56;;;;;;;5.43;4.88;;;;;;;13.67;82.79;99078.53;4133354;28;20129;-72
2022/07/24 00:44:03;;;;;;;6.40;5.18;;;;;;;13.64;82.86;99087.63;4133031;28;20391;-72
2022/07/24 00:46:03;;;;;;;6.93;5.43;;;;;;;13.63;82.40;99086.84;4134703;28;20045;-72
2022/07/24 00:48:04;;;;;;;7.53;5.03;;;;;;;13.65;82.28;99080.88;4133633;28;20454;-72
2022/07/24 00:50:06;;;;;;;6.80;5.32;;;;;;;13.61;82.65;99082.84;4131353;28;20036;-72
2022/07/24 00:52:06;;;;;;;6.82;5.70;;;;;;;13.53;82.88;99086.75;4133080;28;20432;-72
2022/07/24 00:54:09;;;;;;;6.68;5.78;;;;;;;13.45;83.67;99085.88;4137410;28;20029;-72
2022/07/24 00:56:09;;;;;;;7.45;5.43;;;;;;;13.42;83.62;99086.66;4136226;28;20048;-72
2022/07/24 00:58:09;;;;;;;7.68;5.60;;;;;;;13.38;84.38;99092.16;4133978;28;20065;-72
2022/07/24 01:00:10;;;;;;;6.88;5.95;;;;;;;13.36;83.74;99093.75;4136645;28;20023;-72
2022/07/24 01:02:11;;;;;;;6.53;5.65;;;;;;;13.29;84.67;99086.13;4134552;28;20217;-72
2022/07/24 01:04:12;;;;;;;6.10;5.40;;;;;;;13.25;83.45;99084.50;4135952;28;20037;-72
2022/07/24 01:06:14;;;;;;;8.00;6.80;;;;;;;13.19;84.49;99093.16;4136909;28;20450;-72
2022/07/24 01:08:14;;;;;;;7.37;5.80;;;;;;;13.19;84.86;99098.72;4138005;28;20053;-72
2022/07/24 01:10:14;;;;;;;9.05;5.18;;;;;;;13.13;84.90;99091.06;4133793;28;20022;-72
2022/07/24 01:12:15;;;;;;;7.45;5.53;;;;;;;13.15;84.43;99086.72;4137172;28;20553;-72
2022/07/24 01:14:16;;;;;;;7.93;6.18;;;;;;;13.08;86.83;99085.88;4137959;28;20087;-72
2022/07/24 01:16:17;;;;;;;7.07;5.38;;;;;;;13.05;86.61;99089.41;4135739;28;20038;-72
2022/07/24 01:18:17;;;;;;;7.07;5.40;;;;;;;13.01;85.88;99086.59;4136717;28;20045;-72
2022/07/24 01:20:18;;;;;;;6.60;5.25;;;;;;;12.93;86.12;99085.72;4137123;28;20381;-72
2022/07/24 01:22:18;;;;;;;6.63;5.50;;;;;;;12.92;86.36;99095.22;4134986;28;20030;-72
2022/07/24 01:24:19;;;;;;;7.05;5.50;;;;;;;12.93;86.07;99094.03;4135408;28;20612;-72
2022/07/24 01:26:20;;;;;;;6.38;5.30;;;;;;;12.96;86.42;99095.25;4136924;28;20032;-72
2022/07/24 01:28:20;;;;;;;7.03;5.63;;;;;;;12.90;87.19;99094.78;4136450;28;20525;-72
2022/07/24 01:30:21;;;;;;;6.82;5.38;;;;;;;12.90;86.83;99094.78;4136097;28;20409;-72
2022/07/24 01:32:21;;;;;;;6.93;5.68;;;;;;;12.85;87.10;99089.56;4134995;28;20448;-72
2022/07/24 01:34:22;;;;;;;10.13;6.00;;;;;;;12.80;88.66;99083.56;4136712;28;20046;-72
2022/07/24 01:36:22;;;;;;;12.85;6.82;;;;;;;12.71;90.51;99088.59;4135526;28;20309;-72
2022/07/24 01:38:22;;;;;;;8.25;6.32;;;;;;;12.68;91.31;99101.25;4136303;28;20048;-72
2022/07/24 01:40:23;;;;;;;8.15;6.13;;;;;;;12.65;91.61;99093.66;4136447;28;20377;-72
2022/07/24 01:42:25;;;;;;;9.57;5.95;;;;;;;12.63;91.06;99090.47;4135375;28;20053;-72
2022/07/24 01:44:25;;;;;;;9.83;5.53;;;;;;;12.61;90.15;99084.50;4134693;28;20149;-72
2022/07/24 01:46:26;;;;;;;8.25;5.80;;;;;;;12.62;89.28;99086.09;4135878;28;20412;-72
2022/07/24 01:48:26;;;;;;;7.50;5.38;;;;;;;12.59;89.40;99090.44;4136410;28;20412;-72
2022/07/24 01:50:26;;;;;;;9.02;6.45;;;;;;;12.57;89.22;99083.66;4136230;28;20038;-72
2022/07/24 01:52:27;;;;;;;6.80;5.47;;;;;;;12.52;88.68;99093.13;4136336;28;20493;-72
2022/07/24 01:54:27;;;;;;;6.75;5.60;;;;;;;12.55;87.23;99086.81;4134029;28;20041;-72
2022/07/24 01:56:29;;;;;;;8.07;6.55;;;;;;;12.51;87.82;99082.41;4135745;28;20054;-72
2022/07/24 01:58:30;;;;;;;9.13;5.50;;;;;;;12.50;86.34;99087.16;4134005;28;20485;-72
2022/07/24 02:00:30;;;;;;;6.32;5.30;;;;;;;12.61;84.84;99084.50;4136918;28;20410;-72
2022/07/24 02:02:30;;;;;;;5.65;4.78;;;;;;;12.66;85.00;99081.41;4134228;28;20045;-72
2022/07/24 02:04:31;;;;;;;6.00;5.38;;;;;;;12.66;85.34;99075.88;4136044;28;20050;-72
2022/07/24 02:06:31;;;;;;;7.68;5.72;;;;;;;12.59;86.27;99078.53;4135190;28;20073;-72
2022/07/24 02:08:31;;;;;;;6.93;5.53;;;;;;;12.52;86.07;99079.25;4134988;28;20048;-71
2022/07/24 02:10:32;;;;;;;7.20;5.95;;;;;;;12.44;87.21;99079.53;4136512;28;20045;-71
2022/07/24 02:12:32;;;;;;;8.15;5.43;;;;;;;12.36;88.82;99078.63;4133692;28;20045;-71
2022/07/24 02:14:33;;;;;;;8.95;5.30;;;;;;;12.35;86.05;99074.25;4134525;28;20046;-71
2022/07/24 02:16:33;;;;;;;8.43;5.60;;;;;;;12.36;86.07;99078.63;4136718;28;20421;-71
2022/07/24 02:18:34;;;;;;;6.90;5.82;;;;;;;12.36;86.88;99078.63;4133842;28;20767;-71
2022/07/24 02:20:34;;;;;;;7.68;6.05;;;;;;;12.35;86.87;99072.28;4135627;28;20050;-71
2022/07/24 02:22:35;;;;;;;10.40;6.47;;;;;;;12.36;87.29;99073.88;4134894;28;20074;-71
2022/07/24 02:24:35;;;;;;;13.23;7.88;;;;;;;12.38;87.56;99070.72;4133640;28;20057;-71
2022/07/24 02:26:36;;;;;;;9.38;7.20;;;;;;;12.30;88.72;99074.56;4136173;28;20038;-71
2022/07/24 02:28:36;;;;;;;10.95;6.80;;;;;;;12.22;88.25;99087.53;4133153;28;20045;-71
2022/07/24 02:30:36;;;;;;;8.52;6.18;;;;;;;12.16;88.93;99079.91;4136858;28;20230;-71
2022/07/24 02:32:37;;;;;;;9.48;6.97;;;;;;;12.05;88.68;99075.00;4135169;28;20124;-71
2022/07/24 02:34:37;;;;;;;10.68;6.72;;;;;;;11.99;89.84;99079.25;4136258;28;20083;-71
2022/07/24 02:36:38;;;;;;;9.13;6.93;;;;;;;11.98;88.17;99076.88;4135141;28;20041;-71
2022/07/24 02:38:38;;;;;;;13.25;7.75;;;;;;;11.94;88.73;99073.25;4135498;28;20081;-72
2022/07/24 02:40:39;;;;;;;8.57;6.45;;;;;;;11.90;89.25;99072.38;4136685;28;20180;-72
2022/07/24 02:42:39;;;;;;;9.80;6.50;;;;;;;11.92;89.78;99078.38;4134204;28;20560;-72
2022/07/24 02:44:39;;;;;;;8.25;6.43;;;;;;;11.91;89.42;99082.31;4136178;28;20566;-70
2022/07/24 02:46:40;;;;;;;8.77;6.72;;;;;;;11.90;89.38;99084.28;4137716;28;20447;-71
2022/07/24 02:48:40;;;;;;;10.55;6.25;;;;;;;11.95;89.18;99081.19;4136932;28;20061;-71
2022/07/24 02:50:41;;;;;;;8.52;6.75;;;;;;;11.92;89.55;99079.19;4136697;28;20058;-71
2022/07/24 02:52:41;;;;;;;8.98;6.35;;;;;;;11.86;89.99;99074.31;4138259;28;20045;-71
2022/07/24 02:54:41;;;;;;;7.53;6.15;;;;;;;11.80;90.97;99082.94;4136618;28;20502;-71
2022/07/24 02:56:42;;;;;;;9.07;6.47;;;;;;;11.79;89.87;99083.28;4137193;28;20290;-71
2022/07/24 02:58:42;;;;;;;8.27;5.75;;;;;;;11.77;89.60;99091.97;4135063;28;20362;-71
2022/07/24 03:00:43;;;;;;;11.82;6.82;;;;;;;11.72;91.20;99091.47;4137496;28;20068;-71
2022/07/24 03:02:43;;;;;;;9.02;5.95;;;;;;;11.66;92.64;99093.75;4136382;28;20473;-71
2022/07/24 03:04:44;;;;;;;11.32;6.88;;;;;;;11.63;93.90;99091.72;4136447;28;20087;-71
2022/07/24 03:06:44;;;;;;;9.30;6.43;;;;;;;11.59;94.54;99093.66;4137835;28;20042;-71
2022/07/24 03:08:44;;;;;;;8.73;6.40;;;;;;;11.60;94.40;99097.22;4135387;28;20409;-71
2022/07/24 03:10:45;;;;;;;9.90;7.20;;;;;;;11.56;95.19;99091.59;4137717;28;20129;-71
2022/07/24 03:12:45;;;;;;;9.98;6.68;;;;;;;11.57;95.95;99098.75;4135725;28;20053;-71
2022/07/24 03:14:45;;;;;;;9.40;6.38;;;;;;;11.54;95.47;99096.72;4134553;28;20758;-71
2022/07/24 03:16:46;;;;;;;7.55;6.68;;;;;;;11.56;95.77;99093.56;4136273;28;20518;-71
2022/07/24 03:18:48;;;;;;;9.63;6.50;;;;;;;11.56;94.52;99107.44;4134228;28;20417;-71
2022/07/24 03:20:48;;;;;;;9.85;6.53;;;;;;;11.50;94.46;99085.59;4137083;28;20121;-71
2022/07/24 03:22:49;;;;;;;7.55;6.32;;;;;;;11.54;94.79;99093.94;4135160;28;20469;-71
2022/07/24 03:24:49;;;;;;;7.45;6.30;;;;;;;11.53;94.95;99100.66;4135866;28;20095;-71
2022/07/24 03:26:50;;;;;;;7.53;5.80;;;;;;;11.48;95.31;99092.66;4135600;28;20062;-71
2022/07/24 03:28:50;;;;;;;9.98;7.00;;;;;;;11.47;95.51;99096.59;4135341;28;20049;-71
2022/07/24 03:30:50;;;;;;;7.68;5.63;;;;;;;11.44;94.48;99092.59;4135088;28;20079;-70
2022/07/24 03:32:51;;;;;;;7.00;5.93;;;;;;;11.43;94.90;99098.50;4135487;28;20054;-71
2022/07/24 03:34:51;;;;;;;11.88;6.68;;;;;;;11.40;94.64;99100.03;4136786;28;20658;-71
2022/07/24 03:36:51;;;;;;;12.50;7.82;;;;;;;11.39;96.19;99103.19;4137675;28;20300;-71
2022/07/24 03:38:52;;;;;;;8.20;6.55;;;;;;;11.35;96.29;99105.09;4135478;28;20064;-71
2022/07/24 03:40:52;;;;;;;11.85;7.07;;;;;;;11.33;96.97;99099.09;4136417;28;20094;-71
2022/07/24 03:42:52;;;;;;;14.40;7.30;;;;;;;11.34;95.84;99101.53;4134942;28;20057;-71
2022/07/24 03:44:53;;;;;;;13.90;8.05;;;;;;;11.28;96.48;99094.69;4136652;28;20045;-71
2022/07/24 03:46:53;;;;;;;8.68;6.88;;;;;;;11.27;96.34;99098.63;4137226;28;20042;-71
2022/07/24 03:48:55;;;;;;;9.27;6.72;;;;;;;11.20;96.97;99098.47;4134592;28;20549;-71
2022/07/24 03:50:55;;;;;;;9.57;6.60;;;;;;;11.16;97.43;99106.72;4137301;28;20053;-71
2022/07/24 03:52:56;;;;;;;10.20;6.40;;;;;;;11.16;98.12;99103.94;4135118;28;20498;-71
2022/07/24 03:54:56;;;;;;;9.55;6.68;;;;;;;11.13;98.13;99107.44;4136066;28;20058;-71
2022/07/24 03:56:57;;;;;;;11.25;7.78;;;;;;;11.14;98.05;99108.25;4136363;28;20345;-71
2022/07/24 03:58:58;;;;;;;9.88;6.80;;;;;;;11.15;97.98;99099.56;4134634;28;20050;-71
2022/07/24 04:00:58;;;;;;;8.80;7.28;;;;;;;11.15;96.85;99107.88;4137051;28;20470;-71
2022/07/24 04:02:58;;;;;;;11.88;6.75;;;;;;;11.18;96.62;99106.38;4135140;28;20053;-71
2022/07/24 04:04:59;;;;;;;12.35;7.25;;;;;;;11.16;97.17;99101.16;4136398;28;20206;-71
2022/07/24 04:06:59;;;;;;;13.55;7.03;;;;;;;11.19;97.87;99108.75;4136967;28;20231;-71
2022/07/24 04:09:00;;;;;;;8.38;7.20;;;;;;;11.18;97.77;99109.13;4134800;28;20459;-71
2022/07/24 04:11:01;;;;;;;10.27;6.90;;;;;;;11.19;98.21;99107.97;4135691;28;20103;-71
2022/07/24 04:13:01;;;;;;;8.77;7.00;;;;;;;11.20;98.38;99112.34;4134834;28;20045;-71
2022/07/24 04:15:02;;;;;;;10.20;6.80;;;;;;;11.16;97.85;99117.78;4135617;28;20132;-71
2022/07/24 04:17:02;;;;;;;11.07;6.90;;;;;;;11.11;98.16;99120.06;4135259;28;20405;-71
2022/07/24 04:19:03;;;;;;;9.43;7.15;;;;;;;11.11;97.55;99112.56;4134167;28;20050;-71
2022/07/24 04:21:04;;;;;;;8.25;6.93;;;;;;;11.11;97.81;99103.47;4135256;28;20052;-71
2022/07/24 04:23:04;;;;;;;10.20;7.38;;;;;;;11.08;97.38;99106.94;4135570;28;20056;-71
2022/07/24 04:25:06;;;;;;;7.97;6.60;;;;;;;11.07;97.86;99122.75;4135858;28;20542;-71
2022/07/24 04:27:06;;;;;;;10.73;7.57;;;;;;;11.11;98.15;99120.06;4134516;28;20443;-71
2022/07/24 04:29:07;;;;;;;9.65;7.50;;;;;;;11.13;97.97;99114.97;4134747;28;20065;-71
2022/07/24 04:31:07;;;;;;;9.48;7.88;;;;;;;11.16;97.71;99112.25;4135891;28;20741;-71
2022/07/24 04:33:08;;;;;;;10.73;7.60;;;;;;;11.22;97.86;99115.53;4135546;28;20072;-71
2022/07/24 04:35:08;;;;;;;12.10;7.88;;;;;;;11.22;97.46;99112.75;4135636;28;20042;-71
2022/07/24 04:37:09;;;;;;;10.60;7.20;;;;;;;11.30;96.75;99114.50;4136904;28;20104;-71
2022/07/24 04:39:09;;;;;;;10.80;7.63;;;;;;;11.39;94.93;99103.97;4135576;28;20042;-71
2022/07/24 04:41:09;;;;;;;9.75;7.15;;;;;;;11.50;95.01;99107.75;4134424;28;20060;-71
2022/07/24 04:43:10;;;;;;;8.98;7.78;;;;;;;11.64;93.09;99104.41;4134279;28;20445;-71
2022/07/24 04:45:11;;;;;;;9.63;7.85;;;;;;;11.71;93.36;99101.78;4133666;28;20057;-71
2022/07/24 04:47:11;;;;;;;9.05;7.20;;;;;;;11.80;93.93;99107.09;4134522;28;20049;-71
2022/07/24 04:49:12;;;;;;;11.60;8.50;;;;;;;11.86;94.84;99113.13;4135997;28;20054;-71
2022/07/24 04:51:13;;;;;;;14.68;8.43;;;;;;;11.88;95.33;99096.91;4135476;28;20045;-71
2022/07/24 04:53:13;;;;;;;11.95;6.57;;;;;;;11.96;94.96;99109.72;4136362;28;20308;-71
2022/07/24 04:55:13;;;;;;;9.50;6.90;;;;;;;12.03;94.92;99099.56;4134584;28;20710;-71
2022/07/24 04:57:14;;;;;;;9.27;7.35;;;;;;;12.11;94.18;99094.91;4136428;28;20042;-71
2022/07/24 04:59:14;;;;;;;11.35;7.72;;;;;;;12.24;93.79;99103.81;4135575;28;20052;-71
2022/07/24 05:01:15;;;;;;;9.77;7.45;;;;;;;12.33;92.46;99099.59;4135089;28;20073;-71
2022/07/24 05:03:15;;;;;;;12.27;7.55;;;;;;;12.48;91.46;99095.03;4135546;28;20038;-71
2022/07/24 05:05:15;;;;;;;13.00;7.97;;;;;;;12.61;90.95;99101.16;4134550;28;20317;-71
2022/07/24 05:07:16;;;;;;;8.25;6.90;;;;;;;12.68;90.30;99095.72;4135606;28;20088;-71
2022/07/24 05:09:16;;;;;;;9.05;7.30;;;;;;;12.83;89.12;99100.28;4135566;28;20049;-71
2022/07/24 05:11:17;;;;;;;11.05;7.45;;;;;;;12.93;89.40;99098.81;4134379;28;21280;-71
2022/07/24 05:13:17;;;;;;;11.85;7.50;;;;;;;13.07;90.12;99101.72;4135772;28;20045;-71
2022/07/24 05:15:17;;;;;;;10.70;7.32;;;;;;;13.20;90.81;99099.53;4134975;28;20128;-71
2022/07/24 05:17:18;;;;;;;15.10;7.95;;;;;;;13.29;90.24;99094.47;4134075;28;20050;-71
2022/07/24 05:19:18;;;;;;;10.27;6.75;;;;;;;13.38;90.23;99094.94;4135517;28;20042;-71
2022/07/24 05:21:19;;;;;;;12.07;7.63;;;;;;;13.51;89.73;99091.91;4135139;28;20135;-71
2022/07/24 05:23:19;;;;;;;11.75;7.68;;;;;;;13.56;88.95;99085.97;4136254;28;20080;-71
2022/07/24 05:25:20;;;;;;;11.32;7.43;;;;;;;13.64;87.05;99079.28;4135373;28;20080;-71
2022/07/24 05:27:20;;;;;;;10.23;8.10;;;;;;;13.74;87.94;99084.97;4135555;28;20042;-71
2022/07/24 05:29:20;;;;;;;10.90;7.15;;;;;;;13.83;87.03;99090.22;4133352;28;20046;-71
2022/07/24 05:31:21;;;;;;;15.88;7.78;;;;;;;13.88;85.47;99084.28;4133595;28;20136;-71
2022/07/24 05:33:21;;;;;;;12.98;7.53;;;;;;;13.98;86.13;99082.75;4135559;28;20120;-71
2022/07/24 05:35:22;;;;;;;14.57;8.23;;;;;;;14.05;86.70;99074.47;4135045;28;20057;-71
2022/07/24 05:37:22;;;;;;;11.38;7.60;;;;;;;14.15;86.86;99084.06;4135368;28;20684;-71
2022/07/24 05:39:22;;;;;;;13.70;8.85;;;;;;;14.24;88.00;99082.56;4137167;28;20120;-71
2022/07/24 05:41:23;;;;;;;13.10;8.50;;;;;;;14.28;88.02;99071.44;4136974;28;20064;-71
2022/07/24 05:43:23;;;;;;;13.80;8.73;;;;;;;14.34;87.19;99078.25;4136155;28;20053;-71
2022/07/24 05:45:23;;;;;;;13.40;9.02;;;;;;;14.37;86.91;99077.44;4133642;28;20047;-71
2022/07/24 05:47:24;;;;;;;12.32;8.70;;;;;;;14.42;86.72;99079.09;4135352;28;20367;-71
2022/07/24 05:49:24;;;;;;;11.57;8.93;;;;;;;14.48;87.61;99086.72;4133928;28;20033;-71
2022/07/24 05:51:25;;;;;;;12.35;9.10;;;;;;;14.54;86.93;99065.63;4134195;28;20124;-71
2022/07/24 05:53:26;;;;;;;11.13;8.57;;;;;;;14.64;86.04;99072.44;4135188;28;20125;-72
2022/07/24 05:55:27;;;;;;;11.35;8.43;;;;;;;14.70;85.35;99076.47;4135503;28;20042;-71
2022/07/24 05:57:28;;;;;;;12.20;8.73;;;;;;;14.76;85.78;99083.25;4136016;28;20191;-71
2022/07/24 05:59:28;;;;;;;10.07;8.90;;;;;;;14.84;85.66;99078.50;4136051;28;20049;-71
2022/07/24 06:01:28;;;;;;;10.75;9.02;;;;;;;14.88;84.31;99084.88;4134968;28;20556;-71
2022/07/24 06:03:29;;;;;;;11.35;8.32;;;;;;;14.93;83.48;99086.50;4134656;28;20145;-71
2022/07/24 06:05:29;;;;;;;11.23;8.52;;;;;;;15.01;84.14;99075.00;4136516;28;20496;-71
2022/07/24 06:07:29;;;;;;;10.73;8.70;;;;;;;15.09;83.91;99076.59;4135160;28;20486;-71
2022/07/24 06:09:30;;;;;;;10.23;8.10;;;;;;;15.14;83.73;99079.03;4134567;28;20124;-71
2022/07/24 06:11:30;;;;;;;12.80;8.45;;;;;;;15.20;83.65;99075.84;4133762;28;20037;-71
2022/07/24 06:13:31;;;;;;;8.77;7.88;;;;;;;15.31;84.44;99082.25;4135462;28;20504;-71
2022/07/24 06:15:31;;;;;;;10.13;9.05;;;;;;;15.40;84.33;99082.66;4136851;28;20038;-71
2022/07/24 06:17:31;;;;;;;9.10;7.60;;;;;;;15.49;83.39;99073.91;4135234;28;20677;-71
2022/07/24 06:19:32;;;;;;;11.55;8.55;;;;;;;15.55;84.17;99075.88;4133725;28;20138;-71
2022/07/24 06:21:32;;;;;;;10.80;8.30;;;;;;;15.64;83.97;99076.34;4135564;28;20053;-71
2022/07/24 06:23:32;;;;;;;14.30;7.43;;;;;;;15.73;83.36;99079.53;4133279;28;20560;-71
2022/07/24 06:25:33;;;;;;;11.32;9.27;;;;;;;15.84;83.77;99084.31;4134793;28;20042;-71
2022/07/24 06:27:39;;;;;;;10.32;8.63;;;;;;;15.90;81.69;99077.16;4134676;28;20045;-70
2022/07/24 06:29:39;;;;;;;11.20;8.93;;;;;;;16.01;81.60;99077.94;4133613;28;20573;-70
2022/07/24 06:31:40;;;;;;;9.88;8.30;;;;;;;16.09;80.91;99082.31;4134282;28;20070;-70
2022/07/24 06:33:40;;;;;;;11.90;8.32;;;;;;;16.17;80.65;99069.94;4136360;28;20125;-70
2022/07/24 06:35:40;;;;;;;13.95;9.35;;;;;;;16.28;80.60;99081.06;4133703;28;20041;-71
2022/07/24 06:37:41;;;;;;;12.52;9.07;;;;;;;16.33;80.55;99077.09;4135983;28;20048;-71
2022/07/24 06:39:42;;;;;;;15.98;9.13;;;;;;;16.43;79.95;99077.06;4045559;28;20049;-71
2022/07/24 06:41:42;;;;;;;10.25;7.80;;;;;;;16.55;78.86;99073.84;4132289;28;20296;-71
2022/07/24 06:43:42;;;;;;;8.48;7.57;;;;;;;16.61;78.28;99076.22;4134675;28;20434;-71
2022/07/24 06:45:43;;;;;;;9.88;7.50;;;;;;;16.64;77.23;99064.25;4134395;28;20450;-71
2022/07/24 06:47:43;;;;;;;8.52;6.78;;;;;;;16.73;77.08;99067.44;4135034;28;20096;-71
2022/07/24 06:49:44;;;;;;;9.02;7.38;;;;;;;16.83;76.07;99066.59;4133883;28;20046;-71
2022/07/24 06:51:44;;;;;;;11.48;7.68;;;;;;;16.91;76.04;99070.16;4132779;28;20133;-71
2022/07/24 06:53:46;;;;;;;10.15;7.13;;;;;;;16.98;75.92;99061.72;4134820;28;20353;-71
2022/07/24 06:55:47;;;;;;;8.70;6.10;;;;;;;17.09;75.31;99068.06;4134556;28;20042;-71
2022/07/24 06:57:47;;;;;;;6.55;5.78;;;;;;;17.21;74.57;99062.00;4134717;28;20129;-71
2022/07/24 06:59:48;;;;;;;7.72;6.25;;;;;;;17.33;73.35;99066.31;4134216;28;20089;-71
2022/07/24 07:01:48;;;;;;;7.05;5.82;;;;;;;17.42;72.02;99067.44;4133632;28;20108;-71
2022/07/24 07:03:49;;;;;;;6.57;5.07;;;;;;;17.48;70.03;99061.44;4134745;28;20072;-71
2022/07/24 07:05:49;;;;;;;5.88;5.32;;;;;;;17.54;70.40;99055.00;4136002;28;20121;-71
2022/07/24 07:07:49;;;;;;;10.10;5.97;;;;;;;17.60;70.30;99055.34;4137408;28;20038;-71
2022/07/24 07:09:50;;;;;;;7.28;5.60;;;;;;;17.69;69.78;99055.66;4135103;28;20049;-71
2022/07/24 07:11:50;;;;;;;5.88;4.82;;;;;;;17.81;70.18;99062.81;4134268;28;20029;-71
2022/07/24 07:13:51;;;;;;;13.80;6.13;;;;;;;17.90;69.13;99057.53;4135811;28;20852;-71
2022/07/24 07:15:51;;;;;;;8.75;5.78;;;;;;;18.02;69.45;99059.81;4136362;28;20037;-71
2022/07/24 07:17:52;;;;;;;6.07;5.30;;;;;;;18.15;66.97;99051.69;4137264;28;20200;-71
2022/07/24 07:19:52;;;;;;;7.40;4.68;;;;;;;18.24;68.32;99058.41;4135437;28;20526;-71
2022/07/24 07:21:53;;;;;;;9.18;5.72;;;;;;;18.36;67.58;99050.69;4135371;28;20056;-71
2022/07/24 07:23:53;;;;;;;6.28;5.25;;;;;;;18.48;66.60;99050.94;4135582;28;20707;-71
2022/07/24 07:25:54;;;;;;;5.30;4.70;;;;;;;18.56;65.43;99054.47;4136605;28;20540;-71
2022/07/24 07:27:54;;;;;;;7.13;4.95;;;;;;;18.68;66.23;99047.53;4136239;28;20576;-71
2022/07/24 07:29:55;;;;;;;6.20;4.25;;;;;;;18.80;65.95;99050.59;4135036;28;20490;-71
2022/07/24 07:31:55;;;;;;;5.30;4.80;;;;;;;18.88;64.10;99045.69;4134167;28;20072;-71
2022/07/24 07:33:57;;;;;;;4.20;3.78;;;;;;;18.98;63.94;99046.78;4134560;28;20046;-71
2022/07/24 07:35:58;;;;;;;6.03;3.80;;;;;;;19.06;63.60;99046.25;4135920;28;20076;-71
2022/07/24 07:37:58;;;;;;;3.97;3.58;;;;;;;19.19;63.02;99045.66;4134593;28;20074;-71
2022/07/24 07:39:59;;;;;;;8.23;4.38;;;;;;;19.39;62.31;99051.41;4135373;28;20540;-71
2022/07/24 07:41:59;;;;;;;6.05;3.97;;;;;;;19.51;61.10;99045.19;4133847;28;20407;-71
2022/07/24 07:44:01;;;;;;;4.88;3.85;;;;;;;19.57;60.04;99041.53;4132842;28;20852;-71
2022/07/24 07:46:01;;;;;;;5.07;3.65;;;;;;;19.66;60.87;99032.56;4134622;28;20386;-71
2022/07/24 07:48:02;;;;;;;4.63;3.75;;;;;;;19.78;60.05;99036.78;4135177;28;20037;-71
2022/07/24 07:50:03;;;;;;;9.13;5.22;;;;;;;19.85;59.28;99033.84;4134437;28;20037;-71
2022/07/24 07:52:04;;;;;;;7.13;3.80;;;;;;;19.98;58.44;99031.22;4134628;28;20029;-71
2022/07/24 07:54:04;;;;;;;4.10;3.03;;;;;;;20.02;58.47;99035.53;4135773;28;20721;-71
2022/07/24 07:56:05;;;;;;;6.38;3.03;;;;;;;20.05;57.49;99036.72;4135740;28;20229;-71
2022/07/24 07:58:05;;;;;;;5.93;3.63;;;;;;;20.14;57.13;99029.31;4135025;28;20036;-71
2022/07/24 08:00:07;;;;;;;4.97;3.40;;;;;;;20.25;56.88;99033.94;4131085;28;20036;-72
2022/07/24 08:02:07;;;;;;;3.80;3.50;;;;;;;20.31;56.22;99035.03;4133165;28;20051;-71
2022/07/24 08:04:08;;;;;;;4.00;3.17;;;;;;;20.38;56.16;99026.47;4134170;28;20438;-71
2022/07/24 08:06:08;;;;;;;4.32;3.30;;;;;;;20.41;55.42;99032.03;4132960;28;20031;-71
2022/07/24 08:08:08;;;;;;;4.45;3.50;;;;;;;20.49;55.49;99021.47;4136444;28;20029;-71
2022/07/24 08:10:09;;;;;;;4.97;3.47;;;;;;;20.50;55.03;99025.84;4134957;28;20303;-71
2022/07/24 08:12:09;;;;;;;5.07;3.72;;;;;;;20.58;55.87;99027.31;4135826;28;20041;-71
2022/07/24 08:14:10;;;;;;;3.70;3.40;;;;;;;20.75;55.06;99023.31;4134303;28;20490;-71
2022/07/24 08:16:10;;;;;;;8.30;5.63;;;;;;;20.91;53.37;99024.63;4133331;28;20040;-71
2022/07/24 08:18:11;;;;;;;15.52;11.18;;;;;;;21.02;52.03;99022.38;4134952;28;20038;-71
2022/07/24 08:20:11;;;;;;;5.82;4.00;;;;;;;21.07;52.37;99016.22;4133036;28;20026;-71
2022/07/24 08:22:12;;;;;;;6.57;5.97;;;;;;;21.13;52.32;99017.31;4135138;28;20646;-71
2022/07/24 08:24:13;;;;;;;3.95;3.50;;;;;;;21.24;52.27;99014.22;4135523;28;20321;-71
2022/07/24 08:26:13;;;;;;;3.70;3.30;;;;;;;21.37;53.65;99028.47;4132794;28;20026;-71
2022/07/24 08:28:14;;;;;;;7.78;3.72;;;;;;;21.38;51.19;99019.56;4131192;28;20419;-71
2022/07/24 08:30:14;;;;;;;8.65;3.60;;;;;;;21.47;51.66;99010.50;4124389;28;20368;-71
2022/07/24 08:32:15;;;;;;;6.70;4.15;;;;;;;21.58;52.09;99013.84;4123126;28;20117;-71
2022/07/24 08:34:15;;;;;;;5.35;3.95;;;;;;;21.69;51.45;99013.63;4134647;28;20022;-71
2022/07/24 08:36:16;;;;;;;6.65;3.67;;;;;;;21.76;52.08;99022.69;4135984;28;20038;-71
2022/07/24 08:38:16;;;;;;;3.95;3.25;;;;;;;21.81;51.79;99016.50;4136120;28;20145;-71
2022/07/24 08:40:17;;;;;;;5.22;3.88;;;;;;;21.84;51.62;99009.97;4134194;28;20492;-72
2022/07/24 08:42:17;;;;;;;4.55;4.00;;;;;;;21.92;50.04;99015.41;4134812;28;20060;-71
2022/07/24 08:44:18;;;;;;;4.15;3.70;;;;;;;21.95;50.08;99001.25;4134136;28;20133;-71
2022/07/24 08:46:18;;;;;;;5.13;4.13;;;;;;;22.06;50.61;99012.25;4134012;28;20031;-71
2022/07/24 08:48:21;;;;;;;4.15;3.75;;;;;;;22.11;50.24;99009.72;4134849;28;20512;-71
2022/07/24 08:50:21;;;;;;;;;;;;;;;22.23;49.97;99013.03;4134455;28;20054;-71
2022/07/24 08:52:22;;;;;;;5.00;4.00;;;;;;;22.35;48.79;99012.31;4134458;28;19948;-71
2022/07/24 08:54:23;;;;;;;5.25;4.22;;;;;;;22.43;48.71;99016.50;4136895;28;20482;-71
2022/07/24 08:56:25;;;;;;;5.03;3.88;;;;;;;22.40;49.92;99009.72;4136174;28;20167;-71
2022/07/24 08:58:25;;;;;;;6.97;3.80;;;;;;;22.41;49.75;99005.66;4134764;28;20073;-71
2022/07/24 09:00:27;;;;;;;5.47;3.80;;;;;;;22.37;50.27;99015.47;4136176;28;21188;-71
2022/07/24 09:02:28;;;;;;;6.18;3.75;;;;;;;22.42;50.32;99009.25;4135060;28;20108;-71
2022/07/24 09:04:40;;;;;;;5.03;4.53;;;;;;;22.57;48.90;99009.66;4135165;28;20062;-71
2022/07/24 09:06:56;;;;;;;5.88;3.50;;;;;;;22.70;48.30;98999.22;4134703;28;20353;-71
2022/07/24 09:08:59;;;;;;;4.85;3.83;;;;;;;22.80;47.47;99008.59;4134619;28;20049;-71
2022/07/24 09:11:05;;;;;;;9.45;5.80;;;;;;;22.88;47.05;99010.78;4134820;28;20486;-71
2022/07/24 09:13:16;;;;;;;15.30;5.75;;;;;;;23.01;46.87;99012.84;4134822;28;20050;-71
2022/07/24 09:15:20;;;;;;;5.22;3.95;;;;;;;23.15;46.42;99009.56;4137972;28;20065;-71
2022/07/24 09:17:21;;;;;;;4.05;3.60;;;;;;;23.16;46.66;99009.13;4139466;28;20803;-71
2022/07/24 09:19:21;;;;;;;5.13;4.15;;;;;;;23.01;48.10;99010.81;4137443;28;20133;-71
2022/07/24 09:21:21;;;;;;;4.55;3.90;;;;;;;23.02;46.92;99014.44;4138141;28;20232;-71
2022/07/24 09:23:22;;;;;;;6.40;3.65;;;;;;;23.03;46.20;98999.09;4137226;28;20046;-71
2022/07/24 09:25:27;;;;;;;5.22;3.78;;;;;;;23.30;46.61;99007.91;4138979;28;20081;-71
2022/07/24 09:27:28;;;;;;;9.32;3.80;;;;;;;23.43;45.79;99005.88;4138947;28;20045;-71